KBBD - Brady/Curtis Fld, TX, US

Issued at 2328 UTC 17 Jan 2022
Updated at 0509 UTC 18 Jan 2022
Potential Impact None Slight Moderate High
Time0455Z 18/06Z 18/07Z 18/08Z 18/09Z 18/10Z 18/11Z 18/12Z 18/13Z 18/14Z 18/15Z 18/16Z 18/17Z 18/18Z>>
Type OBS PRVL PRVL PRVL PRVL PRVL PRVL PRVL PRVL PRVL PRVL PRVL PRVL PRVL
VIS 10 >6 >6 >6 >6 >6 >6 >6 >6 >6 >6 >6 >6 >6
CIG -- -- -- -- -- -- -- -- -- -- -- -- -- --
Cover -- SKC SKC SKC SKC SKC SKC SKC SKC SKC SKC SKC SKC SKC
FltCat VFR VFR VFR VFR VFR VFR VFR VFR VFR VFR VFR VFR VFR VFR
WX -- -- -- -- -- -- -- -- -- -- -- -- -- --
WDir 190 180 180 180 180 180 180 180 180 180 190 190 190 190
WSpd 7 7 7 7 7 7 7 7 7 7 18 18 18 18
WGst -- -- -- -- -- -- -- -- -- -- 25 25 25 25
WSHgt -- -- -- -- -- -- -- -- -- -- -- -- -- --
WSDir -- -- -- -- -- -- -- -- -- -- -- -- -- --
WSSpd -- -- -- -- -- -- -- -- -- -- -- -- -- --
Raw TAF
KBBD 172328Z 1800/1824 18007KT P6SM SKC
  FM181500 19018G25KT P6SM SKC AMD NOT SKED


Raw METAR
KBBD 180455Z AUTO 19007KT 10SM 10/M11 RMK AO2
KBBD 180435Z AUTO 17006KT 10SM 10/M11 RMK AO2
KBBD 180415Z AUTO 18007KT 10SM 11/M11 RMK AO2
KBBD 180355Z AUTO 19007KT 10SM 11/M11 RMK AO2
KBBD 180335Z AUTO 18007KT 10SM 11/M11 RMK AO2
KBBD 180315Z AUTO 18008KT 10SM 11/M11 RMK AO2
KBBD 180255Z AUTO 18007KT 10SM 11/M11 RMK AO2
KBBD 180235Z AUTO 17005KT 10SM 12/M11 RMK AO2

METAR Board
Radar Display
Forecast Discussion
For situational awareness. Not to be used for flight planning purposes.